createdAt,value
2022-12-16T00:00:00.112Z,7.94
2022-12-16T00:00:12.563Z,8.18
2022-12-16T00:00:24.588Z,8.75
2022-12-16T00:00:36.443Z,9.38
2022-12-16T00:00:48.680Z,9.63
2022-12-16T00:01:19.982Z,9.60
2022-12-16T00:01:32.008Z,10.02
2022-12-16T00:01:43.955Z,9.57
2022-12-16T00:01:55.891Z,8.65
2022-12-16T00:02:07.847Z,8.38
2022-12-16T00:02:19.782Z,9.88
2022-12-16T00:02:32.325Z,9.88
2022-12-16T00:02:44.279Z,9.63
2022-12-16T00:02:56.198Z,10.27
2022-12-16T00:03:08.182Z,9.30
2022-12-16T00:03:19.985Z,8.25
2022-12-16T00:03:32.256Z,7.47
2022-12-16T00:03:49.169Z,8.38
2022-12-16T00:04:03.924Z,9.10
2022-12-16T00:04:17.712Z,8.95
2022-12-16T00:04:29.560Z,9.38
2022-12-16T00:04:41.461Z,8.93
2022-12-16T00:04:53.446Z,8.63
2022-12-16T00:05:05.885Z,8.20
2022-12-16T00:05:19.901Z,8.30
2022-12-16T00:05:31.805Z,8.35
2022-12-16T00:05:44.657Z,8.77
2022-12-16T00:05:56.536Z,9.48
2022-12-16T00:06:09.349Z,8.50
2022-12-16T00:06:21.557Z,9.35
2022-12-16T00:06:33.924Z,9.73
2022-12-16T00:06:45.718Z,9.13
2022-12-16T00:06:57.473Z,9.10
2022-12-16T00:07:09.295Z,9.30
2022-12-16T00:07:21.152Z,9.23
2022-12-16T00:07:32.934Z,9.02
2022-12-16T00:07:44.667Z,8.20
2022-12-16T00:07:56.508Z,9.18
2022-12-16T00:08:08.334Z,10.63
2022-12-16T00:08:20.149Z,10.75
2022-12-16T00:08:33.809Z,9.73
2022-12-16T00:08:45.574Z,9.10
2022-12-16T00:08:57.426Z,8.98
2022-12-16T00:09:09.346Z,8.90
2022-12-16T00:09:21.229Z,9.77
2022-12-16T00:09:33.086Z,10.23
2022-12-16T00:09:44.911Z,10.43
2022-12-16T00:09:56.685Z,10.30
2022-12-16T00:10:09.066Z,10.60
2022-12-16T00:10:21.638Z,10.57
2022-12-16T00:10:53.078Z,9.40
2022-12-16T00:11:07.623Z,8.55
2022-12-16T00:11:20.202Z,8.98
2022-12-16T00:11:32.622Z,8.75
2022-12-16T00:11:44.563Z,8.93
2022-12-16T00:11:56.386Z,9.45
2022-12-16T00:12:08.313Z,10.25
2022-12-16T00:12:20.161Z,10.43
2022-12-16T00:12:31.982Z,9.35
2022-12-16T00:12:44.325Z,8.38
2022-12-16T00:12:56.098Z,8.65
2022-12-16T00:13:10.668Z,9.48
2022-12-16T00:13:23.123Z,9.02
2022-12-16T00:13:36.365Z,9.38
2022-12-16T00:13:49.442Z,10.10
2022-12-16T00:14:02.877Z,10.18
2022-12-16T00:14:14.849Z,10.63
2022-12-16T00:14:27.503Z,10.43
2022-12-16T00:14:39.441Z,10.27
2022-12-16T00:14:51.704Z,9.07
2022-12-16T00:15:04.090Z,9.15
2022-12-16T00:15:16.418Z,10.15
2022-12-16T00:15:28.191Z,10.05
2022-12-16T00:15:40.152Z,10.23
2022-12-16T00:15:51.934Z,10.73
2022-12-16T00:16:12.866Z,10.38
2022-12-16T00:16:24.880Z,9.63
2022-12-16T00:16:36.864Z,9.35
2022-12-16T00:16:48.711Z,9.70
2022-12-16T00:17:00.652Z,9.70
2022-12-16T00:17:12.416Z,10.38
2022-12-16T00:17:24.207Z,10.30
2022-12-16T00:17:36.263Z,10.45
2022-12-16T00:17:47.992Z,9.70
2022-12-16T00:17:59.786Z,10.45
2022-12-16T00:18:11.618Z,9.88
2022-12-16T00:18:23.685Z,9.07
2022-12-16T00:18:35.490Z,9.55
2022-12-16T00:18:47.641Z,9.27
2022-12-16T00:18:59.833Z,9.80
2022-12-16T00:19:11.984Z,9.63
2022-12-16T00:19:25.048Z,9.45
2022-12-16T00:19:36.929Z,10.13
2022-12-16T00:19:48.747Z,11.32
2022-12-16T00:20:02.812Z,11.35
2022-12-16T00:20:15.038Z,10.13
2022-12-16T00:20:26.861Z,10.43
2022-12-16T00:20:49.871Z,10.57
2022-12-16T00:21:03.760Z,10.07
2022-12-16T00:21:18.561Z,9.57
2022-12-16T00:21:30.467Z,9.43
2022-12-16T00:21:42.348Z,9.77
2022-12-16T00:21:54.172Z,11.32
2022-12-16T00:22:06.591Z,10.45
2022-12-16T00:22:18.514Z,11.93
2022-12-16T00:22:31.121Z,11.98
2022-12-16T00:22:42.891Z,12.70
2022-12-16T00:22:55.196Z,11.27
2022-12-16T00:23:07.072Z,10.82
2022-12-16T00:23:18.980Z,9.73
2022-12-16T00:23:31.535Z,9.25
2022-12-16T00:23:43.682Z,9.60
2022-12-16T00:23:57.002Z,9.48
2022-12-16T00:24:08.762Z,9.73
2022-12-16T00:24:20.570Z,10.38
2022-12-16T00:24:32.488Z,10.90
2022-12-16T00:24:44.316Z,12.98
2022-12-16T00:24:56.097Z,13.07
2022-12-16T00:25:08.707Z,14.23
2022-12-16T00:25:20.491Z,11.93
2022-12-16T00:25:32.251Z,12.07
2022-12-16T00:25:44.894Z,10.77
2022-12-16T00:25:56.813Z,10.27
2022-12-16T00:26:09.039Z,9.90
2022-12-16T00:26:20.857Z,10.50
2022-12-16T00:26:32.633Z,10.68
2022-12-16T00:26:44.411Z,10.60
2022-12-16T00:26:56.274Z,10.90
2022-12-16T00:27:08.113Z,10.93
2022-12-16T00:27:20.010Z,10.52
2022-12-16T00:27:31.820Z,9.98
2022-12-16T00:27:43.609Z,10.38
2022-12-16T00:28:00.278Z,10.05
2022-12-16T00:28:13.555Z,9.02
2022-12-16T00:28:25.502Z,9.15
2022-12-16T00:28:38.232Z,9.85
2022-12-16T00:28:50.052Z,10.57
2022-12-16T00:29:05.546Z,10.68
2022-12-16T00:29:17.630Z,10.90
2022-12-16T00:29:29.481Z,10.95
2022-12-16T00:29:41.255Z,11.40
2022-12-16T00:29:53.196Z,12.05
2022-12-16T00:30:06.372Z,11.80
2022-12-16T00:30:18.252Z,11.30
2022-12-16T00:30:30.033Z,11.73
2022-12-16T00:30:44.947Z,11.80
2022-12-16T00:30:57.172Z,11.50
2022-12-16T00:31:09.048Z,10.85
2022-12-16T00:31:21.020Z,11.38
2022-12-16T00:31:32.991Z,11.98
2022-12-16T00:31:48.144Z,11.77
2022-12-16T00:32:00.352Z,11.45
2022-12-16T00:32:12.165Z,11.25
2022-12-16T00:32:24.004Z,12.27
2022-12-16T00:32:35.814Z,11.88
2022-12-16T00:32:47.847Z,11.38
2022-12-16T00:33:00.139Z,11.25
2022-12-16T00:33:13.207Z,12.02
2022-12-16T00:33:26.468Z,13.00
2022-12-16T00:33:38.303Z,12.77
2022-12-16T00:33:50.098Z,11.98
2022-12-16T00:34:02.351Z,11.75
2022-12-16T00:34:17.078Z,10.68
2022-12-16T00:34:29.008Z,11.07
2022-12-16T00:34:40.808Z,12.25
2022-12-16T00:34:53.164Z,12.13
2022-12-16T00:35:06.925Z,12.02
2022-12-16T00:35:18.678Z,11.52
2022-12-16T00:35:30.552Z,11.50
2022-12-16T00:35:45.927Z,11.07
2022-12-16T00:35:57.853Z,10.48
2022-12-16T00:36:09.941Z,10.35
2022-12-16T00:36:21.667Z,11.80
2022-12-16T00:36:33.656Z,11.57
2022-12-16T00:36:45.548Z,10.25
2022-12-16T00:36:57.367Z,10.45
2022-12-16T00:37:09.407Z,10.88
2022-12-16T00:37:21.212Z,11.80
2022-12-16T00:37:33.063Z,12.45
2022-12-16T00:37:47.402Z,11.15
2022-12-16T00:37:59.378Z,11.38
2022-12-16T00:38:11.133Z,11.90
2022-12-16T00:38:23.904Z,11.85
2022-12-16T00:38:35.658Z,11.15
2022-12-16T00:38:47.537Z,12.23
2022-12-16T00:38:59.518Z,13.07
2022-12-16T00:39:11.493Z,12.70
2022-12-16T00:39:23.342Z,11.95
2022-12-16T00:39:35.198Z,10.75
2022-12-16T00:39:47.015Z,10.45
2022-12-16T00:39:58.762Z,12.23
2022-12-16T00:40:11.381Z,13.02
2022-12-16T00:40:23.192Z,12.88
2022-12-16T00:40:35.034Z,11.98
2022-12-16T00:40:46.852Z,12.18
2022-12-16T00:40:58.634Z,11.60
2022-12-16T00:41:10.410Z,11.32
2022-12-16T00:41:22.292Z,11.60
2022-12-16T00:41:34.074Z,11.95
2022-12-16T00:41:47.607Z,11.52
2022-12-16T00:41:59.507Z,11.80
2022-12-16T00:42:11.390Z,11.70
2022-12-16T00:42:23.262Z,12.45
2022-12-16T00:42:35.206Z,13.85
2022-12-16T00:42:47.126Z,14.25
2022-12-16T00:42:58.977Z,13.15
2022-12-16T00:43:10.962Z,13.43
2022-12-16T00:43:22.813Z,14.15
2022-12-16T00:43:34.831Z,15.07
2022-12-16T00:43:47.469Z,14.48
2022-12-16T00:43:59.253Z,13.80
2022-12-16T00:44:11.023Z,12.55
2022-12-16T00:44:22.852Z,11.30
2022-12-16T00:44:34.639Z,11.68
2022-12-16T00:44:46.477Z,12.23
2022-12-16T00:44:58.262Z,12.77
2022-12-16T00:45:10.468Z,12.90
2022-12-16T00:45:22.294Z,12.85
2022-12-16T00:45:34.334Z,12.85
2022-12-16T00:45:46.669Z,12.23
2022-12-16T00:45:58.609Z,11.75
2022-12-16T00:46:10.524Z,11.10
2022-12-16T00:46:22.424Z,11.95
2022-12-16T00:46:34.291Z,11.98
2022-12-16T00:46:46.109Z,11.77
2022-12-16T00:46:57.888Z,12.80
2022-12-16T00:47:09.612Z,13.52
2022-12-16T00:47:21.459Z,13.10
2022-12-16T00:47:33.369Z,12.65
2022-12-16T00:47:45.157Z,11.80
2022-12-16T00:47:57.045Z,10.85
2022-12-16T00:48:08.877Z,12.32
2022-12-16T00:48:23.730Z,14.28
2022-12-16T00:48:35.513Z,14.18
2022-12-16T00:48:47.322Z,12.20
2022-12-16T00:48:59.142Z,12.55
2022-12-16T00:49:11.003Z,13.55
2022-12-16T00:49:22.821Z,13.35
2022-12-16T00:49:34.607Z,12.65
2022-12-16T00:49:47.314Z,12.05
2022-12-16T00:49:59.074Z,12.32
2022-12-16T00:50:11.420Z,12.18
2022-12-16T00:50:23.204Z,12.55
2022-12-16T00:50:35.671Z,12.90
2022-12-16T00:50:50.858Z,13.40
2022-12-16T00:51:04.003Z,11.95
2022-12-16T00:51:15.826Z,12.23
2022-12-16T00:51:27.600Z,12.48
2022-12-16T00:51:39.425Z,11.75
2022-12-16T00:51:51.235Z,12.80
2022-12-16T00:52:03.177Z,13.93
2022-12-16T00:52:14.928Z,14.77
2022-12-16T00:52:26.728Z,13.95
2022-12-16T00:52:38.862Z,12.65
2022-12-16T00:52:50.658Z,13.07
2022-12-16T00:53:02.862Z,13.93
2022-12-16T00:53:15.177Z,14.02
2022-12-16T00:53:27.061Z,12.85
2022-12-16T00:53:38.827Z,12.05
2022-12-16T00:53:50.623Z,12.20
2022-12-16T00:54:02.523Z,11.43
2022-12-16T00:54:14.383Z,12.27
2022-12-16T00:54:26.222Z,12.57
2022-12-16T00:54:38.025Z,12.40
2022-12-16T00:54:49.787Z,13.23
2022-12-16T00:55:04.492Z,12.90
2022-12-16T00:55:16.831Z,12.48
2022-12-16T00:55:28.680Z,12.88
2022-12-16T00:55:40.434Z,13.93
2022-12-16T00:56:05.715Z,15.40
2022-12-16T00:56:20.538Z,12.80
2022-12-16T00:56:32.294Z,13.90
2022-12-16T00:56:44.060Z,14.13
2022-12-16T00:56:56.353Z,13.25
2022-12-16T00:57:08.407Z,13.65
2022-12-16T00:57:20.206Z,13.48
2022-12-16T00:57:31.992Z,13.38
2022-12-16T00:57:44.100Z,12.73
2022-12-16T00:57:55.838Z,13.15
2022-12-16T00:58:07.654Z,12.75
2022-12-16T00:58:19.425Z,13.76
2022-12-16T00:58:31.275Z,14.07
2022-12-16T00:58:43.111Z,14.05
2022-12-16T00:58:54.940Z,14.63
2022-12-16T00:59:06.771Z,13.35
2022-12-16T00:59:18.603Z,13.55
2022-12-16T00:59:30.421Z,14.32
2022-12-16T00:59:42.254Z,14.40
2022-12-16T00:59:54.113Z,14.27
2022-12-16T01:00:09.226Z,14.00
2022-12-16T01:00:22.424Z,13.62
2022-12-16T01:00:34.343Z,13.48
2022-12-16T01:00:46.572Z,14.57
2022-12-16T01:00:58.454Z,15.02
2022-12-16T01:01:10.380Z,14.82
2022-12-16T01:01:22.304Z,14.57
2022-12-16T01:01:34.140Z,14.20
2022-12-16T01:01:46.172Z,14.85
2022-12-16T01:01:58.366Z,13.65
2022-12-16T01:02:11.101Z,14.35
2022-12-16T01:02:23.162Z,14.38
2022-12-16T01:02:35.094Z,14.27
2022-12-16T01:02:48.247Z,14.10
2022-12-16T01:03:00.463Z,14.35
2022-12-16T01:03:16.686Z,14.02
2022-12-16T01:03:31.360Z,14.05
2022-12-16T01:03:43.198Z,14.75
2022-12-16T01:03:57.824Z,14.63
2022-12-16T01:04:09.752Z,14.75
2022-12-16T01:04:21.641Z,14.73
2022-12-16T01:04:33.438Z,13.50
2022-12-16T01:04:45.258Z,14.45
2022-12-16T01:04:57.004Z,13.52
2022-12-16T01:05:09.876Z,13.00
2022-12-16T01:05:26.965Z,13.77
2022-12-16T01:05:39.013Z,14.80
2022-12-16T01:05:50.791Z,14.02
2022-12-16T01:06:10.811Z,14.48
2022-12-16T01:06:22.621Z,14.90
2022-12-16T01:06:34.487Z,15.68
2022-12-16T01:06:47.265Z,14.90
2022-12-16T01:06:59.065Z,14.70
2022-12-16T01:07:10.927Z,14.75
2022-12-16T01:07:22.753Z,16.33
2022-12-16T01:07:34.605Z,16.35
2022-12-16T01:07:47.214Z,15.65
2022-12-16T01:07:59.031Z,14.05
2022-12-16T01:08:10.777Z,15.10
2022-12-16T01:08:22.584Z,14.90
2022-12-16T01:08:34.368Z,15.55
2022-12-16T01:08:49.084Z,15.07
2022-12-16T01:09:01.016Z,14.65
2022-12-16T01:09:12.775Z,14.30
2022-12-16T01:09:24.621Z,14.88
2022-12-16T01:09:36.776Z,15.35
2022-12-16T01:09:48.606Z,16.13
2022-12-16T01:10:00.460Z,15.45
2022-12-16T01:10:12.449Z,15.38
2022-12-16T01:10:25.177Z,14.82
2022-12-16T01:10:36.933Z,14.15
2022-12-16T01:10:56.610Z,14.45
2022-12-16T01:11:10.462Z,14.52
2022-12-16T01:11:22.327Z,15.00
2022-12-16T01:11:34.175Z,15.27
2022-12-16T01:11:45.985Z,15.20
2022-12-16T01:11:57.848Z,15.25
2022-12-16T01:12:09.655Z,15.02
2022-12-16T01:12:21.457Z,15.40
2022-12-16T01:12:33.997Z,15.95
2022-12-16T01:12:45.877Z,14.55
2022-12-16T01:12:57.638Z,13.60
2022-12-16T01:13:09.389Z,13.18
2022-12-16T01:13:21.515Z,13.82
2022-12-16T01:13:33.636Z,13.35
2022-12-16T01:13:46.646Z,13.65
2022-12-16T01:13:59.592Z,14.30
2022-12-16T01:14:11.352Z,14.70
2022-12-16T01:14:23.241Z,15.90
2022-12-16T01:14:35.139Z,14.73
2022-12-16T01:14:46.975Z,14.32
2022-12-16T01:14:58.941Z,14.92
2022-12-16T01:15:12.567Z,15.45
2022-12-16T01:15:24.393Z,14.75
2022-12-16T01:15:38.168Z,14.93
2022-12-16T01:15:50.019Z,16.73
2022-12-16T01:16:02.766Z,16.77
2022-12-16T01:16:15.390Z,17.83
2022-12-16T01:16:27.230Z,16.13
2022-12-16T01:16:39.090Z,15.93
2022-12-16T01:16:50.918Z,15.35
2022-12-16T01:17:02.761Z,15.35
2022-12-16T01:17:14.571Z,14.80
2022-12-16T01:17:26.876Z,15.23
2022-12-16T01:17:39.543Z,16.63
2022-12-16T01:17:51.327Z,16.50
2022-12-16T01:18:03.143Z,16.15
2022-12-16T01:18:16.119Z,16.13
2022-12-16T01:18:27.977Z,16.20
2022-12-16T01:18:39.702Z,15.73
2022-12-16T01:18:51.508Z,14.93
2022-12-16T01:19:03.415Z,14.88
2022-12-16T01:19:15.474Z,15.30
2022-12-16T01:19:27.240Z,13.40
2022-12-16T01:19:38.990Z,14.40
2022-12-16T01:19:50.790Z,16.00
2022-12-16T01:20:03.097Z,16.77
2022-12-16T01:20:14.846Z,17.23
2022-12-16T01:20:26.675Z,16.30
2022-12-16T01:20:38.855Z,16.98
2022-12-16T01:20:51.373Z,16.65
2022-12-16T01:21:07.767Z,16.60
2022-12-16T01:21:20.328Z,16.30
2022-12-16T01:21:32.165Z,15.77
2022-12-16T01:21:44.008Z,15.82
2022-12-16T01:21:55.757Z,15.93
2022-12-16T01:22:07.521Z,16.38
2022-12-16T01:22:21.414Z,17.98
2022-12-16T01:22:33.473Z,16.83
2022-12-16T01:22:45.330Z,16.30
2022-12-16T01:22:57.221Z,18.42
2022-12-16T01:23:09.262Z,18.63
2022-12-16T01:23:21.144Z,17.92
2022-12-16T01:23:33.908Z,16.10
2022-12-16T01:23:47.956Z,16.67
2022-12-16T01:24:00.374Z,17.08
2022-12-16T01:24:12.399Z,18.13
2022-12-16T01:24:24.305Z,18.95
2022-12-16T01:24:36.117Z,17.75
2022-12-16T01:24:48.094Z,16.48
2022-12-16T01:25:00.155Z,16.02
2022-12-16T01:25:12.982Z,16.52
2022-12-16T01:25:25.237Z,15.82
2022-12-16T01:25:37.022Z,15.55
2022-12-16T01:25:52.311Z,15.77
2022-12-16T01:26:04.209Z,15.95
2022-12-16T01:26:17.498Z,16.45
2022-12-16T01:26:29.251Z,16.42
2022-12-16T01:26:41.079Z,15.52
2022-12-16T01:26:52.904Z,15.60
2022-12-16T01:27:04.660Z,16.63
2022-12-16T01:27:16.960Z,16.75
2022-12-16T01:27:29.116Z,16.52
2022-12-16T01:27:41.006Z,15.77
2022-12-16T01:27:52.771Z,14.80
2022-12-16T01:28:05.248Z,16.45
2022-12-16T01:28:17.023Z,18.30
2022-12-16T01:28:29.441Z,16.25
2022-12-16T01:28:41.257Z,16.08
2022-12-16T01:28:53.046Z,16.42
2022-12-16T01:29:06.962Z,16.42
2022-12-16T01:29:19.106Z,15.50
2022-12-16T01:29:30.847Z,16.15
2022-12-16T01:29:43.188Z,15.18
2022-12-16T01:29:55.353Z,15.98
2022-12-16T01:30:09.292Z,17.02
2022-12-16T01:30:21.155Z,16.73
2022-12-16T01:30:32.911Z,15.80
2022-12-16T01:30:44.682Z,16.27
2022-12-16T01:31:01.741Z,16.67
2022-12-16T01:31:13.729Z,17.23
2022-12-16T01:31:25.674Z,17.55
2022-12-16T01:31:38.221Z,17.92
2022-12-16T01:31:50.250Z,20.00
2022-12-16T01:32:02.111Z,19.08
2022-12-16T01:32:14.361Z,18.17
2022-12-16T01:32:26.706Z,16.98
2022-12-16T01:32:38.608Z,17.63
2022-12-16T01:32:50.567Z,18.10
2022-12-16T01:33:02.354Z,17.15
2022-12-16T01:33:14.128Z,16.23
2022-12-16T01:33:25.867Z,17.50
2022-12-16T01:33:37.651Z,18.55
2022-12-16T01:33:49.561Z,18.33
2022-12-16T01:34:01.397Z,15.93
2022-12-16T01:34:13.215Z,16.60
2022-12-16T01:34:25.059Z,17.23
2022-12-16T01:34:36.863Z,18.20
2022-12-16T01:34:54.982Z,18.52
2022-12-16T01:35:29.540Z,17.40
2022-12-16T01:35:56.302Z,16.05
2022-12-16T01:36:09.126Z,18.70
2022-12-16T01:36:20.932Z,18.80
2022-12-16T01:36:32.740Z,17.25
2022-12-16T01:36:44.947Z,17.25
2022-12-16T01:36:56.708Z,16.20
2022-12-16T01:37:12.477Z,16.02
2022-12-16T01:37:24.315Z,15.65
2022-12-16T01:37:36.207Z,15.98
2022-12-16T01:37:48.034Z,18.23
2022-12-16T01:37:59.804Z,18.15
2022-12-16T01:38:11.540Z,16.60
2022-12-16T01:38:23.691Z,17.33
2022-12-16T01:38:36.089Z,17.60
2022-12-16T01:38:48.422Z,18.13
2022-12-16T01:39:00.177Z,18.35
2022-12-16T01:39:12.248Z,17.40
2022-12-16T01:39:25.142Z,18.33
2022-12-16T01:39:37.028Z,17.70
2022-12-16T01:39:49.196Z,18.45
2022-12-16T01:40:01.022Z,18.70
2022-12-16T01:40:18.603Z,18.45
2022-12-16T01:40:30.348Z,19.10
2022-12-16T01:40:42.215Z,18.88
2022-12-16T01:40:55.096Z,17.00
2022-12-16T01:41:07.182Z,16.27
2022-12-16T01:41:20.292Z,15.93
2022-12-16T01:41:32.100Z,16.65
2022-12-16T01:41:43.928Z,18.75
2022-12-16T01:41:56.458Z,18.70
2022-12-16T01:42:16.567Z,18.88
2022-12-16T01:42:31.197Z,19.42
2022-12-16T01:42:44.656Z,18.88
2022-12-16T01:42:56.479Z,18.40
2022-12-16T01:43:12.954Z,19.13
2022-12-16T01:43:30.965Z,18.55
2022-12-16T01:43:44.447Z,18.20
2022-12-16T01:44:26.515Z,18.38
2022-12-16T01:44:38.278Z,19.27
2022-12-16T01:44:52.011Z,19.38
2022-12-16T01:45:25.424Z,18.05
2022-12-16T01:45:37.684Z,20.65
2022-12-16T01:45:49.689Z,20.13
2022-12-16T01:46:24.599Z,19.73
2022-12-16T01:46:38.579Z,20.95
2022-12-16T01:46:59.587Z,19.75
2022-12-16T01:47:26.511Z,19.58
2022-12-16T01:47:38.304Z,17.05
2022-12-16T01:47:50.069Z,18.92
2022-12-16T01:48:28.770Z,18.70
2022-12-16T01:48:50.711Z,17.52
2022-12-16T01:49:11.083Z,19.30
2022-12-16T01:49:41.495Z,20.65
2022-12-16T01:50:14.963Z,17.75
2022-12-16T01:50:26.839Z,19.90
2022-12-16T01:50:38.685Z,18.45
2022-12-16T01:50:50.497Z,17.20
2022-12-16T01:51:14.020Z,18.15
2022-12-16T01:51:36.119Z,20.15
2022-12-16T01:51:52.577Z,20.65
2022-12-16T01:52:09.803Z,20.63
2022-12-16T01:52:25.231Z,20.70
2022-12-16T01:52:40.359Z,20.77
2022-12-16T01:52:56.288Z,21.27
2022-12-16T01:53:08.038Z,21.77
2022-12-16T01:53:19.910Z,21.45
2022-12-16T01:53:32.069Z,18.90
2022-12-16T01:53:44.231Z,20.17
2022-12-16T01:54:02.409Z,20.17
2022-12-16T01:54:19.720Z,20.35
2022-12-16T01:54:43.361Z,20.42
2022-12-16T01:55:09.541Z,20.60
2022-12-16T01:55:41.335Z,19.75
2022-12-16T01:55:53.172Z,19.58
2022-12-16T01:56:05.226Z,20.42
2022-12-16T01:56:17.094Z,20.95
2022-12-16T01:56:30.533Z,20.73
2022-12-16T01:56:57.313Z,22.66
2022-12-16T01:57:22.456Z,21.65
2022-12-16T01:57:38.587Z,20.40
2022-12-16T01:57:59.098Z,20.10
2022-12-16T01:58:22.841Z,19.77
2022-12-16T01:58:35.442Z,17.80
2022-12-16T01:58:47.228Z,19.05
2022-12-16T01:58:59.699Z,21.55
2022-12-16T01:59:12.446Z,20.23
2022-12-16T01:59:25.232Z,19.92
2022-12-16T01:59:38.365Z,22.50
2022-12-16T01:59:51.433Z,22.85
2022-12-16T02:00:06.470Z,18.60
2022-12-16T02:00:18.492Z,18.58
2022-12-16T02:00:30.333Z,18.95
2022-12-16T02:00:42.220Z,20.80
2022-12-16T02:00:54.565Z,21.40
2022-12-16T02:01:06.793Z,20.83
2022-12-16T02:01:18.677Z,19.55
2022-12-16T02:01:30.612Z,20.58
2022-12-16T02:01:42.527Z,19.98
2022-12-16T02:01:55.043Z,19.15
2022-12-16T02:02:07.187Z,20.38
2022-12-16T02:02:19.318Z,21.45
2022-12-16T02:02:31.204Z,21.40
2022-12-16T02:02:44.010Z,21.50
2022-12-16T02:02:56.121Z,21.67
2022-12-16T02:03:08.418Z,21.33
2022-12-16T02:03:20.581Z,20.10
2022-12-16T02:03:34.202Z,19.67
2022-12-16T02:03:46.297Z,20.88
2022-12-16T02:03:59.037Z,21.38
2022-12-16T02:04:10.816Z,19.95
2022-12-16T02:04:22.587Z,21.33
2022-12-16T02:04:34.362Z,21.77
2022-12-16T02:05:04.419Z,20.60
2022-12-16T02:05:22.100Z,22.20
2022-12-16T02:05:35.363Z,20.15
2022-12-16T02:05:47.269Z,19.58
2022-12-16T02:05:59.285Z,20.38
2022-12-16T02:06:11.547Z,19.60
2022-12-16T02:06:23.319Z,20.17
2022-12-16T02:06:35.105Z,19.88
2022-12-16T02:06:47.185Z,19.50
2022-12-16T02:06:59.158Z,18.30
2022-12-16T02:07:11.000Z,18.75
2022-12-16T02:07:22.853Z,20.38
2022-12-16T02:07:34.691Z,19.58
2022-12-16T02:08:15.975Z,19.50
2022-12-16T02:08:27.837Z,20.40
2022-12-16T02:08:39.729Z,18.98
2022-12-16T02:08:55.439Z,19.88
2022-12-16T02:09:10.438Z,21.65
2022-12-16T02:09:22.294Z,20.50
2022-12-16T02:09:34.105Z,20.33
2022-12-16T02:09:45.897Z,21.10
2022-12-16T02:09:57.744Z,21.00
2022-12-16T02:10:11.818Z,21.63
2022-12-16T02:10:31.522Z,20.73
2022-12-16T02:10:43.339Z,22.13
2022-12-16T02:11:21.987Z,22.65
2022-12-16T02:12:03.396Z,24.50
2022-12-16T02:12:36.525Z,21.33
2022-12-16T02:13:13.855Z,25.27
2022-12-16T02:14:08.812Z,21.75
2022-12-16T02:15:03.613Z,22.20
2022-12-16T02:15:54.350Z,22.10
2022-12-16T02:16:19.961Z,22.13
2022-12-16T02:16:55.025Z,23.83
2022-12-16T02:17:26.512Z,22.90
2022-12-16T02:18:02.610Z,24.25
2022-12-16T02:18:33.938Z,24.42
2022-12-16T02:18:58.311Z,23.92
2022-12-16T02:19:44.690Z,26.83
2022-12-16T02:20:36.555Z,24.33
2022-12-16T02:21:11.704Z,22.77
2022-12-16T02:21:53.982Z,25.08
2022-12-16T02:22:15.404Z,25.02
2022-12-16T02:23:05.837Z,26.08
2022-12-16T02:23:42.332Z,24.63
2022-12-16T02:24:18.667Z,25.45
2022-12-16T02:25:50.515Z,25.75
2022-12-16T02:26:55.113Z,26.30
2022-12-16T02:27:17.784Z,25.35
2022-12-16T02:28:27.198Z,24.67
2022-12-16T02:28:55.210Z,26.30
2022-12-16T02:29:39.324Z,26.05
2022-12-16T02:30:18.273Z,25.45
2022-12-16T02:31:01.799Z,26.35
2022-12-16T02:31:30.376Z,27.75
2022-12-16T02:32:20.203Z,26.75
2022-12-16T02:33:12.134Z,25.80
2022-12-16T02:33:39.098Z,25.48
2022-12-16T02:34:13.949Z,27.70
2022-12-16T02:34:44.386Z,26.75
2022-12-16T02:35:03.059Z,29.23
2022-12-16T02:35:40.299Z,25.40
2022-12-16T02:36:03.451Z,26.02
2022-12-16T02:36:27.120Z,25.77
2022-12-16T02:36:50.474Z,26.55
2022-12-16T02:37:22.647Z,28.27
2022-12-16T02:37:43.096Z,27.58
2022-12-16T02:38:32.332Z,29.05
2022-12-16T02:38:59.097Z,28.33
2022-12-16T02:39:32.359Z,29.55
2022-12-16T02:39:59.172Z,27.00
2022-12-16T02:40:24.500Z,27.80
2022-12-16T02:40:59.460Z,30.77
2022-12-16T02:41:17.941Z,27.45
2022-12-16T02:41:47.504Z,30.42
2022-12-16T02:42:19.868Z,30.02
2022-12-16T02:42:55.345Z,26.67
2022-12-16T02:43:37.791Z,29.55
2022-12-16T02:44:03.824Z,27.42
2022-12-16T02:44:16.536Z,28.77
2022-12-16T02:44:57.529Z,31.65
2022-12-16T02:45:24.849Z,29.08
2022-12-16T02:45:36.689Z,29.73
2022-12-16T02:45:48.548Z,30.65
2022-12-16T02:46:00.464Z,30.77
2022-12-16T02:46:12.317Z,29.27
2022-12-16T02:46:27.292Z,29.52
2022-12-16T02:46:53.314Z,29.17
2022-12-16T02:47:07.236Z,28.42
2022-12-16T02:47:19.037Z,27.58
2022-12-16T02:47:31.119Z,28.77
2022-12-16T02:47:44.125Z,30.17
2022-12-16T02:47:55.928Z,30.63
2022-12-16T02:48:07.765Z,30.55
2022-12-16T02:48:20.481Z,31.98
2022-12-16T02:48:32.273Z,33.10
2022-12-16T02:48:44.044Z,31.33
2022-12-16T02:48:56.389Z,32.40
2022-12-16T02:49:14.495Z,33.75
2022-12-16T02:49:26.322Z,33.78
2022-12-16T02:49:47.930Z,32.33
2022-12-16T02:50:00.328Z,30.27
2022-12-16T02:50:47.264Z,32.15
2022-12-16T02:50:59.133Z,36.30
2022-12-16T02:51:10.879Z,33.72
2022-12-16T02:51:24.793Z,31.95
2022-12-16T02:51:37.399Z,33.83
2022-12-16T02:51:49.231Z,34.65
2022-12-16T02:52:01.030Z,34.40
2022-12-16T02:52:12.806Z,34.90
2022-12-16T02:52:32.451Z,34.38
2022-12-16T02:52:44.278Z,32.28
2022-12-16T02:52:56.175Z,31.45
2022-12-16T02:53:08.353Z,31.45
2022-12-16T02:53:20.623Z,32.22
2022-12-16T02:53:34.601Z,34.38
2022-12-16T02:53:46.789Z,35.13
2022-12-16T02:53:58.586Z,33.97
2022-12-16T02:54:10.402Z,35.65
2022-12-16T02:54:23.022Z,33.47
2022-12-16T02:54:34.845Z,34.00
2022-12-16T02:54:46.693Z,34.60
2022-12-16T02:55:04.489Z,35.85
2022-12-16T02:55:16.282Z,32.42
2022-12-16T02:55:41.761Z,31.00
2022-12-16T02:56:28.976Z,32.28
2022-12-16T02:57:01.999Z,30.38
2022-12-16T02:57:51.645Z,35.08
2022-12-16T02:58:33.328Z,38.47
2022-12-16T02:59:06.107Z,33.55
2022-12-16T02:59:24.832Z,37.58
2022-12-16T03:00:01.722Z,34.85
2022-12-16T03:00:18.437Z,34.15
2022-12-16T03:01:05.363Z,35.67
2022-12-16T03:01:26.090Z,36.53
2022-12-16T03:01:59.969Z,34.67
2022-12-16T03:02:18.388Z,33.97
2022-12-16T03:03:07.090Z,33.22
2022-12-16T03:03:24.580Z,35.70
2022-12-16T03:03:47.937Z,37.95
2022-12-16T03:04:31.801Z,38.10
2022-12-16T03:04:48.836Z,34.63
2022-12-16T03:05:25.205Z,33.65
2022-12-16T03:05:48.123Z,36.22
2022-12-16T03:05:59.876Z,36.72
2022-12-16T03:06:12.166Z,36.83
2022-12-16T03:06:24.027Z,34.22
2022-12-16T03:06:36.487Z,32.95
2022-12-16T03:06:49.998Z,35.03
2022-12-16T03:07:01.850Z,39.05
2022-12-16T03:07:14.409Z,39.30
2022-12-16T03:07:26.510Z,36.08
2022-12-16T03:07:39.358Z,33.13
2022-12-16T03:07:51.362Z,34.95
2022-12-16T03:08:06.186Z,36.30
2022-12-16T03:08:31.003Z,37.78
2022-12-16T03:08:45.603Z,34.35
2022-12-16T03:08:59.623Z,33.35
2022-12-16T03:09:12.618Z,33.88
2022-12-16T03:09:29.554Z,34.08
2022-12-16T03:09:41.629Z,36.33
2022-12-16T03:09:53.679Z,37.78
2022-12-16T03:10:06.686Z,36.92
2022-12-16T03:10:20.604Z,35.78
2022-12-16T03:10:42.886Z,36.72
2022-12-16T03:10:57.846Z,41.08
2022-12-16T03:11:09.614Z,39.67
2022-12-16T03:11:21.386Z,38.83
2022-12-16T03:11:33.188Z,37.38
2022-12-16T03:11:44.998Z,37.40
2022-12-16T03:11:56.812Z,36.78
2022-12-16T03:12:11.903Z,34.97
2022-12-16T03:12:23.664Z,35.67
2022-12-16T03:12:35.582Z,37.20
2022-12-16T03:12:47.490Z,38.35
2022-12-16T03:12:59.839Z,35.40
2022-12-16T03:13:12.125Z,33.25
2022-12-16T03:13:24.042Z,34.90
2022-12-16T03:14:06.224Z,36.10
2022-12-16T03:14:18.996Z,38.72
2022-12-16T03:14:33.072Z,37.55
2022-12-16T03:14:47.580Z,37.95
2022-12-16T03:14:59.340Z,36.30
2022-12-16T03:15:17.063Z,38.30
2022-12-16T03:15:30.552Z,38.13
2022-12-16T03:15:42.363Z,38.22
2022-12-16T03:15:54.123Z,37.58
2022-12-16T03:16:06.181Z,34.05
2022-12-16T03:16:20.917Z,35.42
2022-12-16T03:16:32.961Z,36.80
2022-12-16T03:16:45.047Z,36.85
2022-12-16T03:16:56.921Z,36.10
2022-12-16T03:17:09.106Z,36.55
2022-12-16T03:17:21.974Z,38.15
2022-12-16T03:17:33.813Z,40.67
2022-12-16T03:17:46.521Z,38.22
2022-12-16T03:17:58.345Z,36.33
2022-12-16T03:18:10.245Z,36.78
2022-12-16T03:18:22.110Z,39.55
2022-12-16T03:18:34.542Z,38.45
2022-12-16T03:18:50.343Z,37.63
2022-12-16T03:19:05.199Z,36.47
2022-12-16T03:19:17.003Z,34.85
2022-12-16T03:19:29.391Z,33.83
2022-12-16T03:19:42.452Z,34.70